Time;durP1;ratioP1;P1;durP2;ratioP2;P2;SDS_P1;SDS_P2;PMS_P1;PMS_P2;Temp;Humidity;BMP_temperature;BMP_pressure;BME280_temperature;BME280_humidity;BME280_pressure;Samples;Min_cycle;Max_cycle;Signal;HPM_P1;HPM_P2
2022/06/24 00:01:39;;;;;;;7.60;3.10;;;;;;;13.33;77.16;93405.66;5131515;27;20062;-45
2022/06/24 00:04:04;;;;;;;3.60;2.40;;;;;;;13.16;77.69;93383.44;5131502;27;20031;-45
2022/06/24 00:06:45;;;;;;;8.27;3.53;;;;;;;13.31;77.91;93399.94;5131667;27;20034;-44
2022/06/24 00:09:12;;;;;;;3.38;2.78;;;;;;;13.31;78.37;93388.09;5131567;27;20031;-43
2022/06/24 00:11:37;;;;;;;5.30;3.00;;;;;;;13.40;77.57;93390.25;5131752;27;20106;-44
2022/06/24 00:14:10;;;;;;;4.90;3.13;;;;;;;13.26;77.95;93387.03;5131401;27;20439;-46
2022/06/24 00:17:01;;;;;;;4.20;2.85;;;;;;;13.11;78.68;93378.09;5131584;27;20431;-45
2022/06/24 00:19:28;;;;;;;7.60;3.28;;;;;;;12.97;78.92;93385.97;5131054;27;20519;-48
2022/06/24 00:22:12;;;;;;;4.38;2.53;;;;;;;13.13;78.93;93379.00;5133646;27;20401;-43
2022/06/24 00:24:39;;;;;;;6.55;3.20;;;;;;;13.22;77.76;93385.97;5151646;27;20030;-44
2022/06/24 00:27:16;;;;;;;6.15;2.70;;;;;;;13.22;77.06;93388.75;5151746;27;20038;-44
2022/06/24 00:29:42;;;;;;;4.68;2.55;;;;;;;13.12;77.14;93394.19;5151941;27;20018;-43
2022/06/24 00:32:08;;;;;;;5.50;2.70;;;;;;;13.09;77.20;93392.53;5144906;27;20449;-44
2022/06/24 00:34:36;;;;;;;6.88;2.80;;;;;;;13.07;77.14;93395.16;5131028;27;20038;-48
2022/06/24 00:37:28;;;;;;;6.10;2.95;;;;;;;13.17;77.07;93400.78;5131048;27;20015;-48
2022/06/24 00:40:00;;;;;;;7.32;3.20;;;;;;;13.00;77.39;93398.69;5128051;27;20047;-46
2022/06/24 00:42:26;;;;;;;2.90;2.58;;;;;;;12.83;78.09;93395.84;5130799;27;20035;-46
2022/06/24 00:45:20;;;;;;;3.83;2.50;;;;;;;12.74;78.22;93402.75;5130866;27;20027;-46
2022/06/24 00:47:47;;;;;;;5.85;2.53;;;;;;;12.62;78.14;93403.75;5118269;27;20039;-46
2022/06/24 00:50:21;;;;;;;4.50;2.33;;;;;;;12.83;76.72;93413.22;5130530;27;20393;-45
2022/06/24 00:52:48;;;;;;;3.50;3.20;;;;;;;12.76;76.84;93413.25;5130839;27;20132;-47
2022/06/24 00:55:24;;;;;;;6.00;2.60;;;;;;;12.76;77.13;93418.78;5130783;27;20295;-45
2022/06/24 00:57:50;;;;;;;2.90;2.42;;;;;;;12.82;76.50;93419.31;5112282;27;20484;-47
2022/06/24 01:00:16;;;;;;;5.30;2.90;;;;;;;12.83;76.62;93420.78;5130676;27;20042;-47
2022/06/24 01:02:42;;;;;;;7.13;2.45;;;;;;;12.82;76.93;93419.31;5130809;27;20639;-47
2022/06/24 01:05:09;;;;;;;9.55;2.90;;;;;;;12.82;77.17;93414.50;5130507;27;20023;-47
2022/06/24 01:07:39;;;;;;;4.82;3.08;;;;;;;12.84;77.44;93405.66;5130108;27;20050;-47
2022/06/24 01:10:06;;;;;;;4.65;2.60;;;;;;;12.75;76.73;93411.78;5130462;27;20415;-46
2022/06/24 01:12:33;;;;;;;6.13;2.55;;;;;;;12.44;77.23;93396.66;5130372;27;20023;-47
2022/06/24 01:14:58;;;;;;;5.00;2.55;;;;;;;12.55;77.05;93402.50;5130531;27;20066;-46
2022/06/24 01:17:24;;;;;;;3.20;2.90;;;;;;;12.58;76.98;93408.94;5129924;27;20125;-48
2022/06/24 01:19:49;;;;;;;7.57;3.97;;;;;;;12.51;77.83;93399.38;5129957;27;20023;-47
2022/06/24 01:22:21;;;;;;;3.85;2.88;;;;;;;12.50;78.76;93405.47;5130055;27;20031;-48
2022/06/24 01:24:47;;;;;;;6.47;3.38;;;;;;;12.57;78.39;93405.44;5129473;27;20054;-47
2022/06/24 01:27:12;;;;;;;5.45;3.17;;;;;;;12.16;78.91;93384.63;5129778;27;20042;-45
2022/06/24 01:29:38;;;;;;;6.80;3.50;;;;;;;12.21;79.26;93410.63;5129995;27;20098;-47
2022/06/24 01:32:04;;;;;;;3.38;2.95;;;;;;;12.25;79.36;93399.16;5135209;27;20426;-47
2022/06/24 01:34:30;;;;;;;6.95;3.60;;;;;;;12.41;78.36;93404.03;5150738;27;20037;-47
2022/06/24 01:36:55;;;;;;;5.60;3.17;;;;;;;12.47;77.41;93395.53;5150404;27;20026;-46
2022/06/24 01:39:21;;;;;;;5.55;3.00;;;;;;;12.48;77.61;93397.00;5150256;27;20019;-47
2022/06/24 01:41:47;;;;;;;6.45;3.08;;;;;;;12.26;78.53;93386.78;5150757;27;20026;-47
2022/06/24 01:44:12;;;;;;;6.43;3.22;;;;;;;12.13;78.69;93390.53;5150420;27;20109;-50
2022/06/24 01:46:38;;;;;;;10.05;2.95;;;;;;;12.20;78.24;93389.75;5150268;27;20114;-46
2022/06/24 01:49:04;;;;;;;5.00;2.53;;;;;;;12.31;77.72;93394.13;5150172;27;20046;-48
2022/06/24 01:51:30;;;;;;;9.95;3.30;;;;;;;12.37;77.19;93398.16;5150487;27;20477;-47
2022/06/24 01:53:56;;;;;;;4.70;2.47;;;;;;;12.34;76.80;93391.00;5150353;27;20037;-48
2022/06/24 01:56:21;;;;;;;8.23;2.92;;;;;;;12.07;77.86;93393.50;5150553;27;20034;-46
2022/06/24 01:58:47;;;;;;;4.28;2.63;;;;;;;12.22;76.84;93386.41;5150476;27;20416;-46
2022/06/24 02:01:12;;;;;;;4.90;2.92;;;;;;;12.14;76.67;93372.63;5149108;27;20097;-46
2022/06/24 02:03:38;;;;;;;4.75;2.75;;;;;;;12.16;77.31;93384.63;5150079;27;20086;-47
2022/06/24 02:06:06;;;;;;;6.90;2.88;;;;;;;12.12;77.95;93391.81;5150156;27;20439;-46
2022/06/24 02:08:32;;;;;;;4.00;2.33;;;;;;;12.17;77.14;93388.84;5150487;27;20106;-46
2022/06/24 02:13:44;;;;;;;3.08;2.78;;;;;;;11.95;77.58;93403.50;5150647;27;20083;-46
2022/06/24 02:16:10;;;;;;;8.05;2.80;;;;;;;12.06;77.19;93403.09;5150033;27;20113;-47
2022/06/24 02:18:36;;;;;;;3.67;2.92;;;;;;;12.04;77.17;93400.16;5150169;27;20110;-46
2022/06/24 02:21:02;;;;;;;13.93;3.35;;;;;;;12.12;77.17;93411.94;5131698;27;20022;-46
2022/06/24 02:23:27;;;;;;;3.65;2.50;;;;;;;12.16;77.17;93406.00;5131701;27;20110;-46
2022/06/24 02:25:54;;;;;;;14.13;3.10;;;;;;;11.92;78.09;93399.09;5150287;27;20064;-48
2022/06/24 02:28:20;;;;;;;5.43;2.60;;;;;;;11.85;78.49;93376.97;5149830;27;20026;-48
2022/06/24 02:30:46;;;;;;;10.90;3.00;;;;;;;11.86;77.17;93372.94;5150126;27;20037;-46
2022/06/24 02:33:12;;;;;;;9.05;2.60;;;;;;;11.84;77.18;93381.06;5134388;27;20058;-46
2022/06/24 02:35:40;;;;;;;3.78;2.60;;;;;;;11.86;77.28;93376.44;5129371;27;20109;-45
2022/06/24 02:38:05;;;;;;;6.55;2.80;;;;;;;11.90;78.32;93379.56;5132326;27;20562;-46
2022/06/24 02:40:46;;;;;;;2.72;2.47;;;;;;;11.96;78.13;93391.16;5132983;27;20062;-46
2022/06/24 02:43:16;;;;;;;10.43;3.50;;;;;;;11.92;77.17;93387.28;5132958;27;20030;-46
2022/06/24 02:45:46;;;;;;;4.93;2.75;;;;;;;11.91;77.16;93386.53;5132897;27;20042;-47
2022/06/24 02:48:13;;;;;;;2.70;2.50;;;;;;;11.82;77.81;93381.63;5132815;27;20063;-45
2022/06/24 02:50:43;;;;;;;6.55;2.80;;;;;;;11.94;77.64;93393.00;5132903;27;20027;-46
2022/06/24 02:53:09;;;;;;;5.55;2.40;;;;;;;11.71;77.13;93382.03;5133092;27;20051;-46
2022/06/24 02:55:36;;;;;;;3.92;2.55;;;;;;;11.54;78.20;93398.44;5132746;27;20027;-48
2022/06/24 02:58:01;;;;;;;4.18;2.72;;;;;;;11.53;78.46;93405.25;5132771;27;20027;-46
2022/06/24 03:00:27;;;;;;;6.03;2.80;;;;;;;11.58;77.33;93403.59;5132655;27;20031;-45
2022/06/24 03:02:52;;;;;;;4.70;3.20;;;;;;;11.46;77.46;93389.41;5132598;27;20031;-46
2022/06/24 03:05:17;;;;;;;4.70;2.60;;;;;;;11.64;77.52;93395.81;5132524;27;20031;-46
2022/06/24 03:07:43;;;;;;;5.97;2.92;;;;;;;11.60;77.76;93401.75;5136934;27;20045;-46
2022/06/24 03:10:09;;;;;;;6.82;2.70;;;;;;;11.54;77.51;93406.00;5153489;27;20022;-46
2022/06/24 03:12:34;;;;;;;7.07;3.03;;;;;;;11.50;78.35;93400.81;5153412;27;20026;-47
2022/06/24 03:15:00;;;;;;;7.43;2.88;;;;;;;11.50;78.66;93400.13;5153018;27;20392;-47
2022/06/24 03:17:25;;;;;;;9.45;4.57;;;;;;;11.45;79.30;93404.53;5153278;27;20091;-46
2022/06/24 03:19:51;;;;;;;8.13;3.20;;;;;;;11.34;80.32;93402.16;5152973;27;20050;-46
2022/06/24 03:22:16;;;;;;;5.57;3.75;;;;;;;11.25;80.36;93386.13;5152817;27;20058;-48
2022/06/24 03:24:42;;;;;;;7.15;3.75;;;;;;;11.60;79.50;93396.22;5153214;27;20098;-49
2022/06/24 03:27:07;;;;;;;10.30;3.80;;;;;;;11.69;79.21;93398.44;5152038;27;20487;-47
2022/06/24 03:29:33;;;;;;;4.43;3.78;;;;;;;11.60;79.20;93379.63;5153280;27;20639;-48
2022/06/24 03:31:58;;;;;;;7.63;3.38;;;;;;;11.62;79.30;93388.09;5147823;27;20110;-47
2022/06/24 03:34:24;;;;;;;4.28;3.30;;;;;;;11.68;79.28;93391.44;5149995;27;20080;-46
2022/06/24 03:36:50;;;;;;;4.90;4.03;;;;;;;11.76;80.03;93397.66;5152995;27;20093;-44
2022/06/24 03:39:17;;;;;;;7.47;3.67;;;;;;;11.88;80.67;93401.50;5152588;27;20715;-45
2022/06/24 03:41:42;;;;;;;12.80;4.00;;;;;;;11.82;80.80;93391.94;5153015;27;20042;-44
2022/06/24 03:44:08;;;;;;;11.80;3.80;;;;;;;11.85;79.67;93404.63;5151042;27;20026;-46
2022/06/24 03:46:33;;;;;;;10.38;5.07;;;;;;;11.83;79.63;93401.69;5137598;27;20122;-46
2022/06/24 03:48:59;;;;;;;15.00;4.28;;;;;;;11.91;79.46;93408.69;5131098;27;20070;-45
2022/06/24 03:51:24;;;;;;;9.25;3.75;;;;;;;12.09;78.22;93413.06;5131898;27;20037;-45
2022/06/24 03:53:50;;;;;;;10.43;3.65;;;;;;;12.13;77.92;93405.09;5131681;27;20027;-48
2022/06/24 03:56:15;;;;;;;7.97;3.70;;;;;;;12.06;78.31;93408.63;5131294;27;20058;-47
2022/06/24 03:58:40;;;;;;;7.60;3.22;;;;;;;12.00;79.01;93413.63;5131578;27;20055;-48
2022/06/24 04:01:06;;;;;;;5.63;3.15;;;;;;;12.07;79.82;93412.88;5131881;27;20019;-47
2022/06/24 04:03:32;;;;;;;4.82;3.00;;;;;;;12.10;79.82;93408.25;5131532;27;20027;-49
2022/06/24 04:05:57;;;;;;;3.30;3.00;;;;;;;12.12;80.06;93408.44;5131739;27;20080;-50
2022/06/24 04:08:23;;;;;;;4.57;2.92;;;;;;;12.12;80.42;93411.94;5147744;27;20027;-48
2022/06/24 04:10:48;;;;;;;3.47;2.95;;;;;;;12.17;80.86;93413.75;5152098;27;20105;-49
2022/06/24 04:13:13;;;;;;;7.68;3.10;;;;;;;12.23;80.65;93412.81;5152290;27;20031;-48
2022/06/24 04:15:52;;;;;;;5.93;3.72;;;;;;;12.32;80.72;93401.88;5152214;27;20033;-47
2022/06/24 04:18:17;;;;;;;6.25;2.70;;;;;;;12.42;80.08;93391.69;5151966;27;20026;-46
2022/06/24 04:20:43;;;;;;;7.55;3.20;;;;;;;12.43;80.95;93386.88;5150832;27;20068;-48
2022/06/24 04:23:08;;;;;;;6.05;2.65;;;;;;;12.50;81.09;93389.59;5148408;27;20079;-47
2022/06/24 04:25:34;;;;;;;7.15;3.25;;;;;;;12.52;81.42;93389.75;5151880;27;20046;-48
2022/06/24 04:28:01;;;;;;;5.30;3.15;;;;;;;12.38;81.06;93379.50;5152076;27;20018;-46
2022/06/24 04:30:26;;;;;;;3.17;2.88;;;;;;;12.65;80.86;93402.59;5151862;27;20034;-46
2022/06/24 04:32:52;;;;;;;3.72;2.67;;;;;;;12.70;81.04;93402.41;5129393;27;20038;-46
2022/06/24 04:35:17;;;;;;;4.85;3.13;;;;;;;12.78;81.54;93410.66;5131104;27;20031;-47
2022/06/24 04:37:43;;;;;;;3.58;3.20;;;;;;;12.85;81.39;93407.09;5131097;27;20023;-46
2022/06/24 04:40:12;;;;;;;5.40;3.10;;;;;;;12.90;81.50;93414.47;5131123;27;20466;-49
2022/06/24 04:42:38;;;;;;;6.65;3.85;;;;;;;12.94;82.36;93423.84;5130810;27;20551;-48
2022/06/24 04:45:05;;;;;;;6.85;3.33;;;;;;;13.07;82.65;93431.19;5133071;27;20046;-46
2022/06/24 04:47:30;;;;;;;4.53;3.05;;;;;;;13.07;83.75;93433.22;5150962;27;20508;-46
2022/06/24 04:49:56;;;;;;;11.30;3.22;;;;;;;13.13;84.68;93431.69;5151518;27;20079;-46
2022/06/24 04:52:21;;;;;;;7.35;3.08;;;;;;;13.19;85.15;93425.94;5132578;27;20035;-47
2022/06/24 04:54:48;;;;;;;3.50;3.10;;;;;;;13.31;85.21;93426.94;5130453;27;20023;-48
2022/06/24 04:57:13;;;;;;;6.93;3.17;;;;;;;13.38;85.54;93418.53;5145497;27;20055;-48
2022/06/24 04:59:39;;;;;;;13.63;3.75;;;;;;;13.54;85.84;93422.66;5150355;27;20030;-45
2022/06/24 05:02:05;;;;;;;8.68;3.08;;;;;;;13.72;85.45;93422.66;5150971;27;20030;-47
2022/06/24 05:04:30;;;;;;;5.53;3.45;;;;;;;13.83;85.02;93419.41;5150992;27;20030;-46
2022/06/24 05:06:56;;;;;;;3.97;3.33;;;;;;;13.89;84.67;93417.88;5151252;27;20087;-47
2022/06/24 05:09:21;;;;;;;13.40;3.72;;;;;;;13.96;84.75;93419.09;5149700;27;20019;-46
2022/06/24 05:11:50;;;;;;;8.20;3.13;;;;;;;14.01;84.71;93412.56;5148496;27;20483;-46
2022/06/24 05:14:16;;;;;;;5.47;4.35;;;;;;;14.07;84.54;93413.78;5148078;27;20087;-46
2022/06/24 05:16:42;;;;;;;3.58;3.10;;;;;;;14.17;83.77;93417.38;5128221;27;20031;-45
2022/06/24 05:19:10;;;;;;;7.20;3.38;;;;;;;14.14;83.48;93412.25;5127809;27;20038;-46
2022/06/24 05:21:35;;;;;;;6.60;3.72;;;;;;;14.18;83.71;93421.63;5128116;27;20027;-45
2022/06/24 05:24:01;;;;;;;8.95;3.60;;;;;;;14.31;82.96;93420.56;5139292;27;20038;-45
2022/06/24 05:26:27;;;;;;;3.28;2.90;;;;;;;14.33;83.33;93421.47;5127810;27;20784;-46
2022/06/24 05:28:52;;;;;;;5.80;2.95;;;;;;;14.33;83.42;93429.81;5126991;27;20046;-45
2022/06/24 05:31:18;;;;;;;4.57;3.00;;;;;;;14.24;83.05;93408.22;5127793;27;20023;-47
2022/06/24 05:33:44;;;;;;;4.65;3.33;;;;;;;14.48;81.78;93426.09;5132035;27;20031;-47
2022/06/24 05:36:10;;;;;;;5.50;3.15;;;;;;;14.55;82.20;93439.16;5148471;27;20030;-46
2022/06/24 05:38:36;;;;;;;4.50;3.53;;;;;;;14.67;82.83;93433.81;5148045;27;20505;-45
2022/06/24 05:41:04;;;;;;;3.10;2.80;;;;;;;14.65;83.11;93439.94;5148773;27;20054;-45
2022/06/24 05:43:30;;;;;;;13.45;3.22;;;;;;;14.69;84.14;93447.88;5148658;27;20419;-46
2022/06/24 05:45:55;;;;;;;3.28;3.00;;;;;;;14.69;84.62;93454.16;5148196;27;20423;-46
2022/06/24 05:48:21;;;;;;;4.00;2.55;;;;;;;14.93;83.79;93453.28;5131541;27;20100;-47
2022/06/24 05:50:47;;;;;;;6.22;2.78;;;;;;;15.18;82.40;93453.13;5127347;27;20083;-45
2022/06/24 05:56:01;;;;;;;5.00;2.88;;;;;;;15.57;82.47;93446.38;5127834;28;20087;-45
2022/06/24 05:58:28;;;;;;;5.15;2.70;;;;;;;15.99;82.27;93467.59;5127045;28;20059;-48
2022/06/24 06:00:56;;;;;;;5.85;2.33;;;;;;;16.23;81.90;93450.63;5127904;27;20057;-47
2022/06/24 06:03:22;;;;;;;9.02;2.75;;;;;;;16.33;79.01;93434.63;5146959;27;20084;-46
2022/06/24 06:05:48;;;;;;;5.43;3.50;;;;;;;16.35;78.59;93431.25;5148362;27;20027;-46
2022/06/24 06:08:14;;;;;;;3.58;2.92;;;;;;;16.37;78.56;93434.19;5148075;27;20031;-49
2022/06/24 06:10:40;;;;;;;6.70;2.90;;;;;;;16.34;77.26;93424.22;5148931;27;20036;-47
2022/06/24 06:13:06;;;;;;;5.18;3.08;;;;;;;16.21;76.92;93414.25;5152064;27;20027;-48
2022/06/24 06:15:31;;;;;;;4.95;3.03;;;;;;;16.28;77.02;93416.16;5152191;27;20026;-47
2022/06/24 06:18:00;;;;;;;12.43;3.70;;;;;;;16.30;79.16;93410.00;5152314;27;20055;-47
2022/06/24 06:20:26;;;;;;;4.55;3.10;;;;;;;16.42;81.42;93417.16;5152345;27;20022;-47
2022/06/24 06:22:52;;;;;;;6.60;2.97;;;;;;;16.42;79.95;93405.28;5151789;27;20091;-45
2022/06/24 06:25:17;;;;;;;6.95;3.75;;;;;;;16.63;79.70;93422.19;5151850;27;20026;-47
2022/06/24 06:27:44;;;;;;;4.80;3.35;;;;;;;16.76;79.73;93437.69;5151680;27;20038;-47
2022/06/24 06:30:10;;;;;;;5.20;3.30;;;;;;;16.80;81.50;93435.19;5150996;27;20019;-47
2022/06/24 06:32:35;;;;;;;4.78;3.35;;;;;;;16.89;82.11;93442.81;5141292;27;20027;-46
2022/06/24 06:35:03;;;;;;;6.63;3.83;;;;;;;17.05;80.77;93443.94;5131284;27;20060;-46
2022/06/24 06:37:28;;;;;;;3.58;2.80;;;;;;;17.16;80.48;93446.84;5131163;27;20035;-45
2022/06/24 06:39:54;;;;;;;4.38;3.40;;;;;;;17.12;79.41;93448.63;5131531;27;20538;-45
2022/06/24 06:42:19;;;;;;;8.20;3.22;;;;;;;17.31;80.32;93449.28;5133373;27;20031;-47
2022/06/24 06:44:45;;;;;;;3.70;3.30;;;;;;;17.57;79.68;93453.19;5152017;27;20023;-46
2022/06/24 06:47:11;;;;;;;4.40;2.97;;;;;;;17.86;78.79;93441.88;5147637;27;20062;-47
2022/06/24 06:49:36;;;;;;;6.10;3.40;;;;;;;18.11;77.58;93442.88;5150745;27;20056;-49
2022/06/24 06:52:02;;;;;;;5.13;3.78;;;;;;;18.24;76.86;93446.44;5150281;27;20034;-47
2022/06/24 06:54:29;;;;;;;10.50;3.97;;;;;;;18.31;78.02;93437.13;5150644;27;20033;-46
2022/06/24 06:56:56;;;;;;;4.03;3.63;;;;;;;18.41;76.76;93441.31;5150766;27;20067;-45
2022/06/24 06:59:21;;;;;;;6.68;4.57;;;;;;;18.50;77.22;93439.81;5150581;27;20015;-46
2022/06/24 07:01:47;;;;;;;9.68;5.55;;;;;;;18.48;79.00;93439.69;5148694;27;20042;-45
2022/06/24 07:04:12;;;;;;;8.00;4.88;;;;;;;18.60;79.06;93438.38;5150686;27;20027;-46
2022/06/24 07:06:38;;;;;;;6.43;4.72;;;;;;;18.77;77.90;93440.16;5148860;27;20030;-47
2022/06/24 07:09:03;;;;;;;6.55;4.82;;;;;;;18.91;77.07;93432.66;5149583;27;20030;-48
2022/06/24 07:11:29;;;;;;;7.57;4.90;;;;;;;19.08;75.50;93437.94;5150248;27;20082;-46
2022/06/24 07:13:57;;;;;;;5.18;3.90;;;;;;;19.43;73.44;93430.34;5150179;27;20034;-47
2022/06/24 07:16:22;;;;;;;7.87;4.13;;;;;;;19.88;72.40;93425.34;5142059;27;20029;-48
2022/06/24 07:18:48;;;;;;;7.03;4.07;;;;;;;20.33;69.98;93421.03;5151066;27;20023;-47
2022/06/24 07:21:13;;;;;;;7.80;4.07;;;;;;;20.60;66.65;93414.81;5152181;27;20114;-47
2022/06/24 07:23:40;;;;;;;6.25;4.00;;;;;;;21.06;65.83;93416.72;5151418;27;20506;-48
2022/06/24 07:26:05;;;;;;;5.30;3.70;;;;;;;21.61;63.25;93420.38;5146258;27;20447;-48
2022/06/24 07:28:33;;;;;;;6.28;4.00;;;;;;;22.04;61.21;93428.97;5137004;27;20163;-49
2022/06/24 07:30:58;;;;;;;6.25;3.40;;;;;;;23.02;60.69;93425.44;5147272;27;20094;-49
2022/06/24 07:33:24;;;;;;;5.70;3.05;;;;;;;24.13;56.19;93427.72;5148392;27;20179;-48
2022/06/24 07:35:50;;;;;;;3.78;2.92;;;;;;;24.93;52.96;93398.63;5142484;27;20026;-49
2022/06/24 07:38:15;;;;;;;3.67;3.10;;;;;;;25.70;49.55;93413.66;5145839;27;20546;-47
2022/06/24 07:40:41;;;;;;;15.77;4.45;;;;;;;26.54;49.41;93419.56;5149773;27;20034;-49
2022/06/24 07:43:07;;;;;;;3.38;2.47;;;;;;;27.28;45.97;93421.31;5149496;27;20510;-47
2022/06/24 07:45:33;;;;;;;3.50;2.67;;;;;;;27.97;44.47;93426.25;5142143;27;20431;-47
2022/06/24 07:47:59;;;;;;;4.57;2.45;;;;;;;28.64;42.73;93418.25;5143295;27;20571;-49
2022/06/24 07:50:25;;;;;;;4.20;2.58;;;;;;;29.20;41.56;93414.00;5135977;27;20026;-50
2022/06/24 07:52:50;;;;;;;4.35;2.65;;;;;;;29.44;40.56;93413.88;5142120;27;20041;-52
2022/06/24 07:58:00;;;;;;;5.18;2.22;;;;;;;30.19;38.35;93418.38;5144048;27;20073;-48
2022/06/24 08:00:26;;;;;;;2.63;2.42;;;;;;;30.62;37.50;93409.28;5123492;27;20507;-48
2022/06/24 08:02:51;;;;;;;7.47;2.50;;;;;;;30.82;36.43;93403.22;5141205;27;20058;-48
2022/06/24 08:05:17;;;;;;;4.50;2.35;;;;;;;31.22;37.10;93401.81;5138438;27;20023;-48
2022/06/24 08:07:45;;;;;;;3.22;2.15;;;;;;;31.58;35.81;93395.97;5146376;27;20163;-46
2022/06/24 08:10:11;;;;;;;2.63;2.08;;;;;;;31.91;34.14;93400.00;5149242;27;20023;-48
2022/06/24 08:12:36;;;;;;;4.60;2.33;;;;;;;32.07;34.17;93400.97;5141632;27;20098;-49
2022/06/24 08:15:02;;;;;;;2.80;2.50;;;;;;;32.41;34.54;93399.94;5137308;27;20023;-46
2022/06/24 08:17:28;;;;;;;3.15;1.80;;;;;;;32.85;33.54;93400.47;5139039;27;20118;-46
2022/06/24 08:19:53;;;;;;;3.20;1.60;;;;;;;33.25;32.59;93395.13;5137684;27;20143;-48
2022/06/24 08:22:20;;;;;;;2.30;2.10;;;;;;;33.55;32.21;93406.09;5138357;27;20030;-47
2022/06/24 08:24:46;;;;;;;2.95;2.08;;;;;;;33.93;30.77;93399.94;5141670;27;20027;-49
2022/06/24 08:27:12;;;;;;;3.72;1.80;;;;;;;34.43;30.39;93408.06;5140921;27;20034;-46
2022/06/24 08:29:38;;;;;;;3.90;1.92;;;;;;;34.87;28.99;93396.78;5145717;27;20102;-48
2022/06/24 08:32:04;;;;;;;3.90;1.95;;;;;;;34.99;27.91;93400.41;5146341;27;20706;-48
2022/06/24 08:34:29;;;;;;;2.88;1.80;;;;;;;35.45;28.81;93402.59;5148429;27;20023;-49
2022/06/24 08:36:55;;;;;;;4.43;2.38;;;;;;;35.90;27.64;93402.56;5148370;27;20022;-48
2022/06/24 08:39:20;;;;;;;2.10;1.90;;;;;;;36.07;27.88;93401.84;5136805;27;20082;-49
2022/06/24 08:41:47;;;;;;;6.63;2.80;;;;;;;36.54;26.47;93401.72;5137654;27;20027;-51
2022/06/24 08:44:12;;;;;;;10.82;2.80;;;;;;;36.61;26.52;93406.72;5147867;27;20053;-48
2022/06/24 08:46:41;;;;;;;3.08;1.73;;;;;;;35.93;25.64;93395.41;5136425;27;20491;-48
2022/06/24 08:49:06;;;;;;;2.80;2.22;;;;;;;34.77;26.70;93394.59;5143711;27;20043;-47
2022/06/24 08:51:34;;;;;;;44.50;4.10;;;;;;;34.85;28.10;93368.78;5147155;27;20109;-47
2022/06/24 08:54:01;;;;;;;3.40;1.80;;;;;;;35.12;26.73;93378.19;5148420;27;20696;-47
2022/06/24 08:56:27;;;;;;;87.88;7.82;;;;;;;35.14;26.53;93398.28;5148168;27;20110;-46
2022/06/24 08:58:53;;;;;;;3.67;1.80;;;;;;;34.32;27.13;93410.19;5148070;27;20107;-48
2022/06/24 09:01:19;;;;;;;4.18;1.98;;;;;;;34.27;27.34;93403.72;5145109;27;20410;-49
2022/06/24 09:03:44;;;;;;;12.65;2.63;;;;;;;33.87;28.29;93406.34;5142631;27;20035;-47
2022/06/24 09:06:15;;;;;;;2.60;1.52;;;;;;;34.56;26.88;93393.09;5142728;27;20055;-47
2022/06/24 09:08:45;;;;;;;8.55;1.80;;;;;;;35.65;26.57;93399.72;5147921;27;20516;-50
2022/06/24 09:11:11;;;;;;;2.78;1.27;;;;;;;35.47;24.30;93402.59;5147908;27;20484;-47
2022/06/24 09:13:46;;;;;;;1.98;1.30;;;;;;;35.45;24.71;93394.00;5148121;27;20033;-47
2022/06/24 09:16:13;;;;;;;2.15;1.20;;;;;;;35.61;24.46;93390.41;5139679;27;20022;-47
2022/06/24 09:18:39;;;;;;;1.63;1.50;;;;;;;35.28;25.03;93388.97;5144242;27;20034;-49
2022/06/24 09:21:04;;;;;;;5.20;1.60;;;;;;;35.61;27.17;93404.75;5147512;27;20049;-50
2022/06/24 09:23:30;;;;;;;6.95;1.85;;;;;;;36.75;26.71;93400.91;5147856;27;20463;-50
2022/06/24 09:25:59;;;;;;;3.17;1.50;;;;;;;37.28;24.93;93391.94;5128921;27;20034;-48
2022/06/24 09:28:30;;;;;;;5.65;2.08;;;;;;;37.05;26.57;93400.03;5141991;27;20114;-51
2022/06/24 09:31:09;;;;;;;2.80;1.70;;;;;;;37.29;26.50;93405.63;5149774;27;20097;-49
2022/06/24 09:33:36;;;;;;;3.95;1.92;;;;;;;37.71;26.72;93404.59;5144416;27;20077;-52
2022/06/24 09:36:03;;;;;;;3.38;1.80;;;;;;;38.46;24.97;93401.72;5149511;27;20028;-51
2022/06/24 09:38:29;;;;;;;3.15;1.85;;;;;;;38.17;24.63;93406.34;5149652;27;20038;-48
2022/06/24 09:41:04;;;;;;;3.85;1.73;;;;;;;38.65;23.58;93400.03;5145048;27;20098;-47
2022/06/24 09:43:31;;;;;;;2.33;1.67;;;;;;;38.98;22.56;93403.25;5149046;27;20068;-48
2022/06/24 09:46:00;;;;;;;4.45;1.50;;;;;;;37.28;24.80;93391.94;5148908;27;20022;-51
2022/06/24 09:48:32;;;;;;;3.67;1.40;;;;;;;36.30;26.37;93391.72;5148939;27;20091;-47
2022/06/24 09:51:05;;;;;;;4.28;1.50;;;;;;;36.70;23.24;93399.50;5144160;27;20045;-48
2022/06/24 09:53:36;;;;;;;2.67;1.48;;;;;;;36.65;23.20;93403.81;5142292;27;20031;-46
2022/06/24 09:56:02;;;;;;;6.13;1.60;;;;;;;37.55;24.81;93401.88;5142305;27;20019;-46
2022/06/24 09:58:29;;;;;;;2.08;1.60;;;;;;;36.88;24.04;93390.78;5147786;27;20495;-47
2022/06/24 10:00:55;;;;;;;3.97;1.80;;;;;;;36.19;24.86;93390.31;5148926;27;20038;-48
2022/06/24 10:03:21;;;;;;;2.78;1.92;;;;;;;34.93;26.79;93394.63;5149327;27;20038;-48
2022/06/24 10:05:48;;;;;;;2.42;2.20;;;;;;;33.59;27.79;93400.44;5150479;27;20033;-47
2022/06/24 10:08:19;;;;;;;2.37;1.77;;;;;;;33.70;29.54;93396.19;5150145;27;20069;-47
2022/06/24 10:10:53;;;;;;;1.95;1.70;;;;;;;34.97;27.85;93400.38;5150173;27;20876;-49
2022/06/24 10:13:27;;;;;;;2.90;1.60;;;;;;;36.31;25.62;93401.06;5150061;27;20030;-49
2022/06/24 10:15:57;;;;;;;4.05;1.48;;;;;;;37.34;23.91;93409.22;5149758;27;20058;-49
2022/06/24 10:18:27;;;;;;;2.70;1.40;;;;;;;36.96;24.29;93408.00;5148661;27;20723;-48
2022/06/24 10:20:55;;;;;;;1.98;1.42;;;;;;;35.72;25.50;93417.69;5124222;28;20103;-46
2022/06/24 10:23:47;;;;;;;2.00;1.38;;;;;;;34.24;25.77;93419.44;5109918;28;20110;-47
2022/06/24 10:26:32;;;;;;;3.25;1.20;;;;;;;32.94;26.27;93427.72;5128582;28;20078;-48
2022/06/24 10:29:21;;;;;;;1.85;1.65;;;;;;;31.79;30.25;93420.56;5128553;28;20434;-48
2022/06/24 10:31:49;;;;;;;3.00;1.85;;;;;;;31.46;30.26;93418.63;5129025;27;20027;-48
2022/06/24 10:34:26;;;;;;;3.17;2.13;;;;;;;32.56;28.86;93413.72;5129675;27;20035;-50
2022/06/24 10:37:12;;;;;;;2.20;1.30;;;;;;;33.28;28.51;93421.63;5129109;27;20038;-50
2022/06/24 10:39:55;;;;;;;5.57;2.90;;;;;;;34.69;26.41;93419.66;5129343;27;20167;-49
2022/06/24 10:42:22;;;;;;;2.30;1.50;;;;;;;35.39;25.69;93419.81;5129661;27;20035;-49
2022/06/24 10:45:02;;;;;;;3.60;1.30;;;;;;;35.65;25.13;93424.84;5130564;27;20069;-51
2022/06/24 10:47:29;;;;;;;4.85;1.70;;;;;;;34.52;25.80;93426.78;5139186;27;20134;-49
2022/06/24 10:49:54;;;;;;;1.48;1.10;;;;;;;34.96;24.40;93421.16;5148924;27;20031;-49
2022/06/24 10:52:36;;;;;;;1.75;1.17;;;;;;;35.98;23.77;93419.81;5144930;27;20577;-49
2022/06/24 10:55:21;;;;;;;5.63;1.42;;;;;;;36.40;23.17;93419.72;5137315;27;20038;-47
2022/06/24 10:57:57;;;;;;;1.98;0.95;;;;;;;36.43;22.81;93421.88;5148676;27;20718;-49
2022/06/24 11:00:36;;;;;;;1.48;0.82;;;;;;;36.77;23.81;93420.31;5130520;27;20023;-48
2022/06/24 11:03:05;;;;;;;3.15;1.00;;;;;;;36.94;22.63;93422.41;5145173;27;20516;-49
2022/06/24 11:05:35;;;;;;;1.98;1.25;;;;;;;37.04;20.77;93421.63;5150054;27;20058;-48
2022/06/24 11:08:03;;;;;;;7.60;1.30;;;;;;;35.46;21.32;93423.41;5151639;27;20466;-46
2022/06/24 11:10:30;;;;;;;2.28;1.20;;;;;;;34.83;22.81;93417.56;5150045;27;20026;-49
2022/06/24 11:12:58;;;;;;;2.58;1.10;;;;;;;34.77;25.21;93422.56;5140690;27;20026;-50
2022/06/24 11:15:48;;;;;;;3.60;1.20;;;;;;;34.69;25.85;93413.94;5150889;27;20031;-47
2022/06/24 11:18:20;;;;;;;2.15;1.25;;;;;;;34.67;29.06;93419.66;5151117;27;20038;-47
2022/06/24 11:20:49;;;;;;;3.55;1.13;;;;;;;34.20;26.23;93416.56;5150955;27;20458;-46
2022/06/24 11:23:17;;;;;;;1.83;1.50;;;;;;;34.06;27.21;93410.06;5150700;27;20111;-47
2022/06/24 11:25:56;;;;;;;5.03;1.50;;;;;;;33.91;28.00;93414.97;5145629;27;20114;-47
2022/06/24 11:28:34;;;;;;;1.80;1.30;;;;;;;32.87;28.42;93409.78;5121472;27;20655;-51
2022/06/24 11:31:20;;;;;;;2.33;1.25;;;;;;;32.48;25.00;93402.22;5145840;27;20411;-50
2022/06/24 11:33:49;;;;;;;1.65;1.52;;;;;;;32.35;27.33;93402.72;5129468;27;20038;-49
2022/06/24 11:36:15;;;;;;;2.83;1.42;;;;;;;32.06;26.60;93404.50;5130904;27;20042;-48
2022/06/24 11:39:04;;;;;;;2.60;1.42;;;;;;;31.64;29.54;93401.75;5147489;27;20101;-46
2022/06/24 11:41:32;;;;;;;1.42;1.20;;;;;;;31.53;28.93;93408.00;5134894;27;20023;-47
2022/06/24 11:43:58;;;;;;;3.55;1.98;;;;;;;31.15;33.74;93408.81;5150886;27;20619;-49